Time;durP1;ratioP1;P1;durP2;ratioP2;P2;SDS_P1;SDS_P2;PMS_P1;PMS_P2;Temp;Humidity;BMP_temperature;BMP_pressure;BME280_temperature;BME280_humidity;BME280_pressure;Samples;Min_cycle;Max_cycle;Signal;HPM_P1;HPM_P2
2021/11/05 00:02:24;;;;;;;5.57;4.70;;;6.50;99.90;;;;;;4973995;28;20254;-51
2021/11/05 00:04:50;;;;;;;8.50;5.33;;;6.40;99.90;;;;;;4957570;28;20257;-51
2021/11/05 00:07:18;;;;;;;8.37;5.53;;;6.50;99.90;;;;;;4972665;28;20422;-51
2021/11/05 00:09:44;;;;;;;10.10;5.67;;;6.60;99.90;;;;;;4974124;28;20221;-52
2021/11/05 00:12:11;;;;;;;6.30;4.63;;;6.90;99.90;;;;;;4975848;28;20358;-50
2021/11/05 00:14:38;;;;;;;7.47;5.37;;;6.70;99.90;;;;;;4970166;28;20246;-52
2021/11/05 00:17:09;;;;;;;7.13;4.47;;;6.60;99.90;;;;;;4969662;28;20291;-52
2021/11/05 00:19:36;;;;;;;6.17;4.30;;;6.60;99.90;;;;;;4971560;28;20674;-51
2021/11/05 00:22:03;;;;;;;6.43;5.10;;;6.70;99.90;;;;;;4970220;28;20923;-50
2021/11/05 00:24:29;;;;;;;8.47;4.63;;;6.90;99.90;;;;;;4970767;28;20226;-53
2021/11/05 00:26:56;;;;;;;5.17;3.97;;;7.10;99.90;;;;;;4969361;28;21089;-52
2021/11/05 00:29:23;;;;;;;5.10;3.97;;;7.20;99.90;;;;;;4971136;28;20223;-51
2021/11/05 00:31:50;;;;;;;6.00;3.97;;;7.30;99.90;;;;;;4972893;28;20285;-52
2021/11/05 00:34:17;;;;;;;6.97;3.93;;;7.30;99.90;;;;;;4971626;28;20679;-52
2021/11/05 00:36:46;;;;;;;5.90;3.40;;;7.30;99.90;;;;;;4974822;28;20298;-51
2021/11/05 00:39:14;;;;;;;3.40;2.90;;;7.40;99.90;;;;;;4972838;28;20203;-53
2021/11/05 00:41:41;;;;;;;4.33;3.23;;;7.50;99.90;;;;;;4975514;28;20214;-50
2021/11/05 00:44:08;;;;;;;4.97;3.00;;;7.60;99.90;;;;;;4970417;28;20677;-53
2021/11/05 00:46:36;;;;;;;7.77;3.30;;;7.60;99.90;;;;;;4970500;28;20241;-53
2021/11/05 00:49:03;;;;;;;4.13;2.90;;;7.70;99.90;;;;;;4972527;28;20197;-51
2021/11/05 00:51:30;;;;;;;4.57;3.37;;;7.60;99.90;;;;;;4973268;28;20289;-53
2021/11/05 00:53:57;;;;;;;4.60;3.33;;;7.40;99.90;;;;;;4971225;28;20306;-51
2021/11/05 00:56:24;;;;;;;5.20;3.47;;;7.60;99.90;;;;;;4969278;28;20203;-51
2021/11/05 00:58:50;;;;;;;5.17;3.20;;;7.70;99.90;;;;;;4972407;28;20600;-51
2021/11/05 01:01:17;;;;;;;4.40;2.83;;;7.70;99.90;;;;;;4974786;28;20684;-52
2021/11/05 01:03:44;;;;;;;4.03;2.90;;;7.70;99.90;;;;;;4975392;28;21040;-53
2021/11/05 01:06:13;;;;;;;4.53;2.80;;;7.60;99.90;;;;;;4972200;28;20262;-52
2021/11/05 01:08:40;;;;;;;3.43;2.43;;;7.50;99.90;;;;;;4972729;28;20243;-50
2021/11/05 01:11:07;;;;;;;4.17;2.83;;;7.60;99.90;;;;;;4974088;28;22147;-53
2021/11/05 01:13:35;;;;;;;3.53;2.47;;;7.60;99.90;;;;;;4974051;28;20210;-51
2021/11/05 01:16:02;;;;;;;5.57;2.90;;;7.50;99.90;;;;;;4970437;28;20273;-50
2021/11/05 01:18:29;;;;;;;3.67;2.63;;;7.30;99.90;;;;;;4967889;28;20199;-51
2021/11/05 01:20:56;;;;;;;3.23;2.57;;;7.20;99.90;;;;;;4970234;28;20201;-53
2021/11/05 01:23:23;;;;;;;5.27;2.30;;;7.20;99.90;;;;;;4970618;28;20226;-50
2021/11/05 01:25:51;;;;;;;4.50;2.27;;;7.20;99.90;;;;;;4968859;28;20269;-51
2021/11/05 01:28:18;;;;;;;2.20;2.00;;;7.00;99.90;;;;;;4968604;28;20205;-50
2021/11/05 01:30:45;;;;;;;2.87;2.57;;;7.20;99.90;;;;;;4968838;28;20334;-51
2021/11/05 01:33:12;;;;;;;3.77;2.30;;;7.10;99.90;;;;;;4952510;28;20193;-52
2021/11/05 01:35:40;;;;;;;4.03;2.47;;;7.10;99.90;;;;;;4969245;28;20202;-54
2021/11/05 01:38:10;;;;;;;3.63;2.40;;;7.00;99.90;;;;;;4965327;28;20209;-52
2021/11/05 01:40:41;;;;;;;5.67;2.77;;;7.10;99.90;;;;;;4971766;28;20238;-52
2021/11/05 01:43:09;;;;;;;3.83;2.00;;;6.90;99.90;;;;;;4973276;28;20289;-51
2021/11/05 01:45:36;;;;;;;4.97;2.00;;;7.10;99.90;;;;;;4968120;28;20206;-51
2021/11/05 01:48:04;;;;;;;3.60;2.00;;;7.10;99.90;;;;;;4964527;28;20623;-53
2021/11/05 01:50:31;;;;;;;3.53;2.20;;;7.20;99.90;;;;;;4971913;28;20373;-51
2021/11/05 01:52:58;;;;;;;4.63;2.20;;;7.10;99.90;;;;;;4974468;28;20254;-52
2021/11/05 01:55:25;;;;;;;3.07;2.30;;;7.10;99.90;;;;;;4971309;28;20228;-50
2021/11/05 01:57:53;;;;;;;3.17;2.10;;;7.10;99.90;;;;;;4968264;28;20207;-51
2021/11/05 02:00:30;;;;;;;2.37;1.67;;;7.20;99.90;;;;;;4969222;28;20294;-53
2021/11/05 02:02:58;;;;;;;2.33;1.87;;;7.30;99.90;;;;;;4968233;28;20211;-51
2021/11/05 02:05:25;;;;;;;3.23;1.70;;;7.20;99.90;;;;;;4968421;28;20212;-51
2021/11/05 02:07:54;;;;;;;4.57;1.70;;;7.30;99.90;;;;;;4969180;28;20324;-50
2021/11/05 02:10:22;;;;;;;2.77;1.93;;;7.00;99.90;;;;;;4969708;28;20312;-50
2021/11/05 02:12:50;;;;;;;2.27;1.83;;;7.10;99.90;;;;;;4973169;28;20290;-51
2021/11/05 02:15:17;;;;;;;7.03;2.27;;;6.90;99.90;;;;;;4972039;28;20784;-51
2021/11/05 02:17:46;;;;;;;4.17;2.23;;;7.00;99.90;;;;;;4969270;28;20219;-51
2021/11/05 02:20:17;;;;;;;3.60;2.30;;;7.20;99.90;;;;;;4975147;28;20321;-50
2021/11/05 02:22:44;;;;;;;6.83;2.50;;;7.30;99.90;;;;;;4976371;28;20269;-51
2021/11/05 02:25:12;;;;;;;3.40;1.80;;;7.20;99.90;;;;;;4973765;28;20214;-51
2021/11/05 02:27:39;;;;;;;3.23;2.20;;;7.20;99.90;;;;;;4974352;28;20658;-50
2021/11/05 02:30:08;;;;;;;3.50;2.00;;;7.20;99.90;;;;;;4972447;28;20296;-49
2021/11/05 02:32:36;;;;;;;2.80;1.90;;;7.30;99.90;;;;;;4974671;28;21876;-50
2021/11/05 02:35:08;;;;;;;3.40;1.90;;;7.30;99.90;;;;;;4973446;28;20240;-50
2021/11/05 02:37:35;;;;;;;2.33;1.73;;;7.20;99.90;;;;;;4973555;28;20297;-51
2021/11/05 02:40:03;;;;;;;2.97;2.10;;;6.90;99.90;;;;;;4974853;28;20713;-51
2021/11/05 02:42:30;;;;;;;5.13;2.33;;;6.80;99.90;;;;;;4978757;28;20207;-51
2021/11/05 02:44:57;;;;;;;2.10;1.90;;;6.60;99.90;;;;;;4974935;28;20233;-51
2021/11/05 02:47:26;;;;;;;2.70;2.37;;;6.50;99.90;;;;;;4970477;28;20229;-51
2021/11/05 02:49:57;;;;;;;3.00;1.40;;;6.50;99.90;;;;;;4975753;28;20304;-50
2021/11/05 02:52:24;;;;;;;3.97;1.93;;;6.30;99.90;;;;;;4977634;28;20210;-50
2021/11/05 02:54:51;;;;;;;2.17;1.70;;;6.50;99.90;;;;;;4972243;28;20266;-52
2021/11/05 02:57:18;;;;;;;3.23;2.20;;;6.40;99.90;;;;;;4972327;28;20234;-50
2021/11/05 02:59:45;;;;;;;2.97;1.73;;;6.40;99.90;;;;;;4974515;28;20624;-52
2021/11/05 03:02:12;;;;;;;2.63;1.60;;;6.40;99.90;;;;;;4969549;28;20214;-50
2021/11/05 03:04:39;;;;;;;2.30;1.80;;;6.40;99.90;;;;;;4969294;28;20253;-50
2021/11/05 03:07:09;;;;;;;2.20;2.00;;;6.40;99.90;;;;;;4956655;28;20217;-51
2021/11/05 03:09:39;;;;;;;3.13;1.67;;;6.50;99.90;;;;;;4974242;28;20344;-51
2021/11/05 03:12:09;;;;;;;3.50;1.87;;;6.50;99.90;;;;;;4969484;28;20397;-51
2021/11/05 03:14:38;;;;;;;2.50;2.00;;;6.40;99.90;;;;;;4967448;28;20213;-52
2021/11/05 03:17:10;;;;;;;4.63;2.57;;;6.30;99.90;;;;;;4971033;28;20213;-51
2021/11/05 03:19:38;;;;;;;2.73;2.03;;;6.20;99.90;;;;;;4975773;28;20203;-51
2021/11/05 03:22:05;;;;;;;2.20;1.80;;;6.30;99.90;;;;;;4974834;28;20582;-51
2021/11/05 03:24:32;;;;;;;3.87;1.80;;;6.20;99.90;;;;;;4972576;28;20212;-49
2021/11/05 03:26:59;;;;;;;2.63;1.90;;;6.20;99.90;;;;;;4972976;28;20211;-52
2021/11/05 03:29:26;;;;;;;2.73;2.03;;;6.10;99.90;;;;;;4972774;28;20216;-52
2021/11/05 03:31:53;;;;;;;3.37;1.90;;;5.90;99.90;;;;;;4970303;28;20218;-51
2021/11/05 03:34:20;;;;;;;4.50;1.90;;;5.90;99.90;;;;;;4973480;28;20230;-50
2021/11/05 03:36:47;;;;;;;2.37;1.80;;;6.00;99.90;;;;;;4972282;28;20248;-51
2021/11/05 03:39:14;;;;;;;3.40;1.73;;;6.00;99.90;;;;;;4955373;28;20356;-51
2021/11/05 03:41:41;;;;;;;2.80;1.70;;;5.90;99.90;;;;;;4961391;28;20243;-50
2021/11/05 03:44:08;;;;;;;2.73;1.70;;;6.00;99.90;;;;;;4974446;28;20206;-52
2021/11/05 03:46:35;;;;;;;4.03;2.10;;;6.00;99.90;;;;;;4969450;28;20728;-50
2021/11/05 03:49:06;;;;;;;2.63;2.03;;;6.00;99.90;;;;;;4975208;28;20680;-50
2021/11/05 03:51:33;;;;;;;3.23;1.63;;;6.00;99.90;;;;;;4975816;28;20217;-52
2021/11/05 03:54:01;;;;;;;1.93;1.80;;;6.10;99.90;;;;;;4972592;28;20199;-50
2021/11/05 03:56:28;;;;;;;2.93;2.07;;;6.10;99.90;;;;;;4974757;28;20234;-52
2021/11/05 03:58:55;;;;;;;3.03;1.60;;;6.10;99.90;;;;;;4971934;28;20709;-51
2021/11/05 04:01:22;;;;;;;3.83;1.50;;;6.10;99.90;;;;;;4970515;28;20682;-52
2021/11/05 04:03:49;;;;;;;3.50;1.63;;;6.30;99.90;;;;;;4976751;28;20656;-51
2021/11/05 04:06:17;;;;;;;4.73;2.20;;;6.30;99.90;;;;;;4972434;28;20216;-51
2021/11/05 04:08:44;;;;;;;1.93;1.63;;;6.20;99.90;;;;;;4972699;28;20747;-50
2021/11/05 04:11:11;;;;;;;1.77;1.60;;;6.20;99.90;;;;;;4972914;28;20221;-52
2021/11/05 04:13:40;;;;;;;2.73;1.67;;;6.20;99.90;;;;;;4977399;28;20225;-51
2021/11/05 04:16:07;;;;;;;3.07;1.57;;;6.20;99.90;;;;;;4974523;28;20197;-50
2021/11/05 04:18:35;;;;;;;1.73;1.50;;;6.10;99.90;;;;;;4975959;28;20231;-51
2021/11/05 04:21:02;;;;;;;4.17;1.90;;;6.10;99.90;;;;;;4976483;28;20212;-51
2021/11/05 04:23:29;;;;;;;1.50;1.40;;;6.20;99.90;;;;;;4973730;28;20227;-51
2021/11/05 04:25:56;;;;;;;1.93;1.30;;;6.20;99.90;;;;;;4974789;28;20750;-51
2021/11/05 04:28:23;;;;;;;2.10;1.40;;;6.10;99.90;;;;;;4955539;28;20288;-50
2021/11/05 04:30:49;;;;;;;2.67;1.40;;;6.00;99.90;;;;;;4973206;28;20305;-52
2021/11/05 04:33:16;;;;;;;2.73;1.17;;;6.00;99.90;;;;;;4975794;28;20810;-51
2021/11/05 04:35:43;;;;;;;2.03;1.33;;;5.90;99.90;;;;;;4967685;28;20669;-53
2021/11/05 04:38:11;;;;;;;2.60;1.47;;;5.80;99.90;;;;;;4966749;28;20283;-51
2021/11/05 04:40:38;;;;;;;3.07;1.87;;;5.90;99.90;;;;;;4972605;28;20210;-52
2021/11/05 04:43:05;;;;;;;2.53;1.70;;;6.00;99.90;;;;;;4969620;28;20296;-50
2021/11/05 04:45:33;;;;;;;4.10;1.63;;;5.80;99.90;;;;;;4968019;28;20333;-50
2021/11/05 04:48:00;;;;;;;3.00;1.80;;;5.90;99.90;;;;;;4970894;28;22379;-50
2021/11/05 04:50:27;;;;;;;1.57;1.30;;;5.90;99.90;;;;;;4972789;28;20238;-52
2021/11/05 04:52:54;;;;;;;3.03;1.63;;;5.80;99.90;;;;;;4972601;28;20325;-50
2021/11/05 04:55:22;;;;;;;5.13;1.50;;;5.70;99.90;;;;;;4969216;28;20753;-50
2021/11/05 04:57:49;;;;;;;2.43;1.43;;;5.80;99.90;;;;;;4968846;28;21220;-49
2021/11/05 05:00:22;;;;;;;2.63;1.43;;;5.70;99.90;;;;;;4969029;28;20229;-52
2021/11/05 05:02:49;;;;;;;2.47;1.20;;;5.80;99.90;;;;;;4971228;28;20229;-50
2021/11/05 05:05:16;;;;;;;4.43;1.30;;;5.90;99.90;;;;;;4971227;28;20227;-53
2021/11/05 05:07:44;;;;;;;2.73;1.70;;;5.90;99.90;;;;;;4972186;28;20226;-51
2021/11/05 05:10:11;;;;;;;2.03;1.60;;;5.80;99.90;;;;;;4974112;28;20236;-52
2021/11/05 05:12:39;;;;;;;3.47;1.40;;;5.90;99.90;;;;;;4969681;28;20222;-50
2021/11/05 05:15:08;;;;;;;1.47;1.30;;;6.00;99.90;;;;;;4972732;28;20829;-49
2021/11/05 05:17:35;;;;;;;1.40;1.20;;;6.10;99.90;;;;;;4972057;28;20306;-53
2021/11/05 05:20:04;;;;;;;1.53;1.10;;;6.10;99.90;;;;;;4970316;28;20934;-51
2021/11/05 05:22:31;;;;;;;1.77;1.10;;;6.20;99.90;;;;;;4973861;28;20238;-53
2021/11/05 05:24:58;;;;;;;2.53;1.50;;;6.10;99.90;;;;;;4965534;28;20301;-51
2021/11/05 05:27:25;;;;;;;1.27;1.10;;;6.20;99.90;;;;;;4973123;28;20662;-52
2021/11/05 05:29:51;;;;;;;4.23;1.30;;;6.30;99.90;;;;;;4970195;28;20653;-51
2021/11/05 05:32:18;;;;;;;4.53;1.53;;;6.20;99.90;;;;;;4972189;28;21181;-50
2021/11/05 05:34:46;;;;;;;2.20;1.60;;;6.20;99.90;;;;;;4967059;28;20202;-50
2021/11/05 05:37:13;;;;;;;1.30;1.20;;;6.30;99.90;;;;;;4966191;28;20668;-52
2021/11/05 05:39:39;;;;;;;2.60;1.23;;;6.30;99.90;;;;;;4969231;28;20647;-51
2021/11/05 05:42:06;;;;;;;3.07;1.30;;;6.30;99.90;;;;;;4973543;28;20225;-51
2021/11/05 05:44:34;;;;;;;3.47;1.50;;;6.40;99.90;;;;;;4967635;28;20629;-53
2021/11/05 05:47:02;;;;;;;1.90;1.70;;;6.40;99.90;;;;;;4967321;28;20783;-52
2021/11/05 05:49:29;;;;;;;3.30;1.50;;;6.40;99.90;;;;;;4971088;28;20246;-50
2021/11/05 05:51:56;;;;;;;6.47;1.83;;;6.30;99.90;;;;;;4969762;28;20675;-51
2021/11/05 05:54:22;;;;;;;3.13;1.87;;;6.40;99.90;;;;;;4972806;28;20234;-50
2021/11/05 05:56:49;;;;;;;3.83;1.60;;;6.40;99.90;;;;;;4972285;28;20231;-50
2021/11/05 05:59:19;;;;;;;2.30;1.90;;;6.40;99.90;;;;;;4968202;28;20231;-51
2021/11/05 06:01:46;;;;;;;3.47;2.13;;;6.40;99.90;;;;;;4972328;28;20596;-51
2021/11/05 06:04:13;;;;;;;4.13;1.80;;;6.30;99.90;;;;;;4973163;28;20715;-51
2021/11/05 06:06:40;;;;;;;2.70;2.27;;;6.40;99.90;;;;;;4970954;28;20294;-50
2021/11/05 06:09:07;;;;;;;4.53;2.53;;;6.30;99.90;;;;;;4956201;28;20728;-50
2021/11/05 06:11:34;;;;;;;3.37;2.57;;;6.30;99.90;;;;;;4965926;28;20239;-53
2021/11/05 06:14:04;;;;;;;3.20;2.53;;;6.30;99.90;;;;;;4973657;28;20231;-52
2021/11/05 06:16:31;;;;;;;4.37;2.80;;;6.30;99.90;;;;;;4973526;28;20927;-50
2021/11/05 06:18:59;;;;;;;4.13;3.37;;;6.30;99.90;;;;;;4968824;28;20225;-52
2021/11/05 06:21:26;;;;;;;5.10;2.73;;;6.30;99.90;;;;;;4970667;28;20668;-51
2021/11/05 06:23:54;;;;;;;3.97;2.70;;;6.30;99.90;;;;;;4972856;28;20621;-50
2021/11/05 06:26:21;;;;;;;3.33;2.80;;;6.30;99.90;;;;;;4971360;28;20918;-51
2021/11/05 06:28:49;;;;;;;6.10;3.23;;;6.40;99.90;;;;;;4955201;28;20293;-51
2021/11/05 06:31:16;;;;;;;5.10;3.40;;;6.40;99.90;;;;;;4954463;28;20206;-50
2021/11/05 06:33:44;;;;;;;7.33;3.23;;;6.20;99.90;;;;;;4972634;28;20238;-50
2021/11/05 06:36:10;;;;;;;4.20;3.20;;;6.20;99.90;;;;;;4968583;28;20537;-51
2021/11/05 06:38:38;;;;;;;3.70;3.13;;;6.10;99.90;;;;;;4968624;28;20240;-53
2021/11/05 06:41:06;;;;;;;4.17;2.90;;;6.20;99.90;;;;;;4971165;28;20279;-51
2021/11/05 06:43:33;;;;;;;3.83;2.97;;;6.30;99.90;;;;;;4974797;28;20552;-51
2021/11/05 06:46:00;;;;;;;3.90;3.50;;;6.40;99.90;;;;;;4970247;28;20623;-51
2021/11/05 06:48:27;;;;;;;4.87;3.40;;;6.30;99.90;;;;;;4970177;28;20246;-50
2021/11/05 06:50:58;;;;;;;6.83;3.07;;;6.30;99.90;;;;;;4970218;28;20244;-51
2021/11/05 06:53:24;;;;;;;3.83;3.40;;;6.40;99.90;;;;;;4973092;28;20246;-52
2021/11/05 06:55:52;;;;;;;3.97;3.40;;;6.40;99.90;;;;;;4972738;28;20213;-52
2021/11/05 06:58:19;;;;;;;4.23;3.43;;;6.40;99.90;;;;;;4969400;28;20242;-50
2021/11/05 07:00:48;;;;;;;4.97;3.30;;;6.40;99.90;;;;;;4966724;28;20219;-51
2021/11/05 07:03:17;;;;;;;4.47;3.30;;;6.40;99.90;;;;;;4969042;28;21938;-52
2021/11/05 07:05:44;;;;;;;5.67;3.50;;;6.50;99.90;;;;;;4971240;28;20199;-52
2021/11/05 07:08:10;;;;;;;6.47;3.47;;;6.50;99.90;;;;;;4971899;28;20198;-50
2021/11/05 07:10:37;;;;;;;4.20;3.60;;;6.50;99.90;;;;;;4972933;28;20212;-50
2021/11/05 07:13:05;;;;;;;4.47;3.50;;;6.40;99.90;;;;;;4967647;28;21168;-51
2021/11/05 07:15:32;;;;;;;6.47;3.70;;;6.50;99.90;;;;;;4954789;28;20648;-50
2021/11/05 07:18:00;;;;;;;4.97;3.40;;;6.60;99.90;;;;;;4969199;28;20202;-52
2021/11/05 07:20:28;;;;;;;6.00;3.50;;;6.60;99.90;;;;;;4974957;28;20240;-52
2021/11/05 07:22:55;;;;;;;5.73;3.60;;;6.50;99.90;;;;;;4978147;28;20268;-51
2021/11/05 07:25:22;;;;;;;6.90;3.57;;;6.50;99.90;;;;;;4977968;28;20208;-51
2021/11/05 07:27:49;;;;;;;5.60;4.00;;;6.60;99.90;;;;;;4973456;28;20209;-53
2021/11/05 07:30:16;;;;;;;5.80;3.23;;;6.60;99.90;;;;;;4977172;28;20637;-50
2021/11/05 07:32:47;;;;;;;4.63;3.40;;;6.70;99.90;;;;;;4976809;28;20678;-53
2021/11/05 07:35:16;;;;;;;5.17;3.43;;;6.90;99.90;;;;;;4979294;28;20240;-51
2021/11/05 07:37:43;;;;;;;4.37;3.27;;;7.00;99.90;;;;;;4953354;28;20228;-50
2021/11/05 07:40:12;;;;;;;6.33;3.57;;;7.00;99.90;;;;;;4973946;28;20236;-50
2021/11/05 07:42:40;;;;;;;4.87;3.70;;;7.00;99.90;;;;;;4975595;28;20586;-50
2021/11/05 07:45:09;;;;;;;6.30;3.73;;;7.00;99.90;;;;;;4975540;28;20261;-50
2021/11/05 07:47:37;;;;;;;7.97;4.00;;;6.90;99.90;;;;;;4973797;28;20759;-51
2021/11/05 07:50:06;;;;;;;4.73;4.00;;;6.90;99.90;;;;;;4977494;28;20326;-50
2021/11/05 07:52:33;;;;;;;5.43;3.40;;;6.90;99.90;;;;;;4975401;28;20220;-52
2021/11/05 07:55:03;;;;;;;5.00;3.17;;;6.80;99.90;;;;;;4958037;28;20267;-50
2021/11/05 07:57:29;;;;;;;5.07;3.60;;;6.90;99.90;;;;;;4976815;28;20268;-53
2021/11/05 07:59:58;;;;;;;4.73;3.40;;;7.00;99.90;;;;;;4974520;28;20199;-51
2021/11/05 08:02:25;;;;;;;5.90;3.20;;;7.00;99.90;;;;;;4972387;28;20889;-50
2021/11/05 08:04:52;;;;;;;5.13;4.03;;;7.00;99.90;;;;;;4970263;28;20456;-51
2021/11/05 08:07:21;;;;;;;5.93;3.80;;;7.00;99.90;;;;;;4973797;28;20206;-51
2021/11/05 08:09:49;;;;;;;4.60;3.87;;;7.10;99.90;;;;;;4970754;28;20240;-53
2021/11/05 08:12:16;;;;;;;3.90;3.47;;;7.10;99.90;;;;;;4972811;28;20257;-51
2021/11/05 08:14:44;;;;;;;5.07;3.70;;;7.20;99.90;;;;;;4973620;28;20286;-50
2021/11/05 08:17:12;;;;;;;6.70;3.30;;;7.30;99.90;;;;;;4972252;28;20226;-52
2021/11/05 08:19:39;;;;;;;5.63;3.47;;;7.40;99.90;;;;;;4974428;28;20250;-50
2021/11/05 08:22:07;;;;;;;4.73;3.13;;;7.50;99.90;;;;;;4978604;28;20262;-50
2021/11/05 08:24:34;;;;;;;6.70;3.37;;;7.50;99.90;;;;;;4975433;28;20205;-50
2021/11/05 08:27:01;;;;;;;6.53;3.10;;;7.60;99.90;;;;;;4975946;28;20247;-52
2021/11/05 08:29:28;;;;;;;4.27;3.07;;;7.70;99.90;;;;;;4976972;28;20310;-51
2021/11/05 08:31:55;;;;;;;3.43;3.13;;;7.70;99.90;;;;;;4977153;28;20542;-52
2021/11/05 08:34:22;;;;;;;5.17;3.20;;;7.90;99.90;;;;;;4977224;28;20261;-52
2021/11/05 08:36:49;;;;;;;4.37;2.90;;;8.00;99.90;;;;;;4958219;28;20244;-49
2021/11/05 08:39:15;;;;;;;5.83;3.70;;;8.20;99.90;;;;;;4976757;28;20835;-49
2021/11/05 08:41:42;;;;;;;3.43;3.10;;;8.20;99.90;;;;;;4977885;28;20216;-52
2021/11/05 08:44:10;;;;;;;5.77;2.80;;;8.50;99.90;;;;;;4976239;28;20204;-51
2021/11/05 08:46:38;;;;;;;4.77;3.03;;;8.70;99.90;;;;;;4976155;28;20317;-49
2021/11/05 08:49:12;;;;;;;5.23;2.80;;;8.90;99.90;;;;;;4977866;28;20204;-50
2021/11/05 08:51:44;;;;;;;5.30;2.57;;;9.20;99.90;;;;;;4974250;28;20201;-49
2021/11/05 08:54:11;;;;;;;3.90;2.50;;;9.60;99.90;;;;;;4959452;28;20201;-50
2021/11/05 08:56:40;;;;;;;4.87;2.60;;;9.90;99.90;;;;;;4977418;28;20249;-50
2021/11/05 08:59:11;;;;;;;3.53;2.20;;;10.40;99.90;;;;;;4978864;28;20303;-50
2021/11/05 09:01:37;;;;;;;7.23;2.13;;;10.90;99.90;;;;;;4976375;28;20295;-49
2021/11/05 09:04:04;;;;;;;3.73;1.97;;;11.00;99.90;;;;;;4958720;28;20263;-52
2021/11/05 09:06:31;;;;;;;3.03;1.70;;;11.30;99.90;;;;;;4976361;28;20203;-50
2021/11/05 09:09:00;;;;;;;3.53;1.70;;;11.90;99.90;;;;;;4971691;28;20636;-51
2021/11/05 09:11:29;;;;;;;5.33;1.93;;;11.60;99.90;;;;;;4973779;28;20207;-49
2021/11/05 09:13:57;;;;;;;2.20;1.70;;;11.40;99.90;;;;;;4973899;28;20214;-49
2021/11/05 09:16:27;;;;;;;4.57;1.93;;;11.80;99.90;;;;;;4974787;28;20720;-50
2021/11/05 09:19:01;;;;;;;3.97;1.80;;;11.90;99.90;;;;;;4976069;28;20199;-58
2021/11/05 09:21:31;;;;;;;2.20;1.63;;;12.10;99.90;;;;;;4957781;28;20205;-56
2021/11/05 09:23:59;;;;;;;4.00;1.70;;;11.90;99.90;;;;;;4973347;28;20317;-50
2021/11/05 09:26:26;;;;;;;5.50;1.73;;;11.70;99.90;;;;;;4970894;28;20220;-58
2021/11/05 09:28:53;;;;;;;6.20;2.20;;;12.20;99.90;;;;;;4972670;28;20203;-58
2021/11/05 09:31:21;;;;;;;4.63;1.50;;;12.10;99.90;;;;;;4972215;28;20235;-59
2021/11/05 09:33:48;;;;;;;3.00;1.63;;;12.20;99.90;;;;;;4970588;28;20218;-59
2021/11/05 09:36:16;;;;;;;6.37;2.80;;;12.50;99.90;;;;;;4977748;28;20204;-60
2021/11/05 09:38:45;;;;;;;5.43;3.10;;;12.40;99.90;;;;;;4975546;28;20203;-58
2021/11/05 09:41:12;;;;;;;4.83;1.70;;;12.70;99.90;;;;;;4974352;28;20632;-59
2021/11/05 09:43:40;;;;;;;4.00;1.77;;;12.60;99.90;;;;;;4974548;28;20265;-58
2021/11/05 09:46:07;;;;;;;3.27;1.47;;;13.10;99.90;;;;;;4970273;28;20617;-58
2021/11/05 09:48:37;;;;;;;3.30;1.50;;;13.20;99.90;;;;;;4973760;28;21019;-58
2021/11/05 09:51:06;;;;;;;4.57;1.50;;;13.10;99.90;;;;;;4971877;28;20309;-58
2021/11/05 09:53:36;;;;;;;4.60;1.87;;;12.80;99.90;;;;;;4973265;28;20268;-58
2021/11/05 09:56:05;;;;;;;3.87;1.63;;;12.60;99.90;;;;;;4974107;28;20305;-58
2021/11/05 09:58:35;;;;;;;3.77;1.40;;;13.00;99.90;;;;;;4974209;28;20970;-58
2021/11/05 10:01:02;;;;;;;3.00;1.47;;;13.70;99.90;;;;;;4971327;28;20266;-57
2021/11/05 10:03:30;;;;;;;3.93;1.60;;;13.60;99.90;;;;;;4973594;28;20218;-58
2021/11/05 10:05:57;;;;;;;3.70;1.87;;;13.80;99.90;;;;;;4972581;28;20722;-58
2021/11/05 10:08:31;;;;;;;2.20;1.60;;;14.10;99.90;;;;;;4973451;28;20204;-58
2021/11/05 10:11:20;;;;;;;4.30;1.80;;;14.20;99.90;;;;;;4971686;28;20977;-50
2021/11/05 10:13:47;;;;;;;4.60;1.73;;;14.20;99.90;;;;;;4969831;28;20652;-52
2021/11/05 10:16:15;;;;;;;2.57;1.80;;;13.60;99.90;;;;;;4972870;28;20203;-50
2021/11/05 10:19:02;;;;;;;4.63;1.70;;;12.90;99.90;;;;;;4971201;28;20628;-49
2021/11/05 10:21:42;;;;;;;7.73;2.10;;;12.40;99.90;;;;;;4967736;28;20262;-49
2021/11/05 10:24:14;;;;;;;3.17;1.50;;;12.10;99.90;;;;;;4968957;28;20285;-48
2021/11/05 10:26:41;;;;;;;4.70;2.17;;;12.20;99.90;;;;;;4972158;28;20213;-49
2021/11/05 10:29:28;;;;;;;4.97;1.80;;;12.00;99.90;;;;;;4971962;28;20310;-48
2021/11/05 10:32:06;;;;;;;3.93;2.07;;;12.20;99.90;;;;;;4970262;28;20940;-50
2021/11/05 10:34:54;;;;;;;4.00;1.80;;;12.50;99.90;;;;;;4972914;28;20202;-49
2021/11/05 10:37:33;;;;;;;5.33;2.10;;;12.90;99.90;;;;;;4972885;28;20650;-49
2021/11/05 10:40:01;;;;;;;6.07;1.87;;;13.40;99.90;;;;;;4973015;28;20270;-49
2021/11/05 10:42:44;;;;;;;4.50;1.77;;;13.50;99.90;;;;;;4977821;28;20881;-48
2021/11/05 10:45:19;;;;;;;3.90;1.80;;;13.30;99.90;;;;;;4978445;28;20256;-48
2021/11/05 10:47:55;;;;;;;5.30;2.13;;;13.20;99.90;;;;;;4977874;28;20313;-49
2021/11/05 10:50:25;;;;;;;4.60;1.53;;;13.50;99.90;;;;;;4977496;28;20730;-48
2021/11/05 10:53:02;;;;;;;10.40;2.10;;;13.60;99.90;;;;;;4976155;28;20745;-48
2021/11/05 10:55:41;;;;;;;4.17;1.43;;;13.80;99.90;;;;;;4976710;28;20277;-48
2021/11/05 10:58:13;;;;;;;5.57;2.50;;;14.20;99.90;;;;;;4977591;28;20228;-49
2021/11/05 11:00:41;;;;;;;3.17;1.60;;;14.20;99.90;;;;;;4979196;28;20250;-48
2021/11/05 11:03:11;;;;;;;5.60;1.70;;;14.40;99.90;;;;;;4959615;28;20239;-48
2021/11/05 11:05:42;;;;;;;6.93;1.70;;;14.30;99.90;;;;;;4961565;28;20610;-48
2021/11/05 11:08:23;;;;;;;5.57;1.53;;;14.20;99.90;;;;;;4978952;28;20318;-49
2021/11/05 11:10:53;;;;;;;6.03;1.77;;;13.90;99.90;;;;;;4978133;28;20214;-49
2021/11/05 11:13:38;;;;;;;4.07;1.67;;;14.10;99.90;;;;;;4978227;28;20281;-49
2021/11/05 11:16:10;;;;;;;6.03;1.67;;;13.80;99.90;;;;;;4978698;28;20232;-49
2021/11/05 11:18:48;;;;;;;6.33;1.97;;;13.80;99.90;;;;;;4976980;28;20274;-49
2021/11/05 11:21:16;;;;;;;3.60;1.70;;;13.50;99.90;;;;;;4979821;28;20226;-51
2021/11/05 11:23:43;;;;;;;5.33;1.40;;;13.60;99.90;;;;;;4974677;28;20254;-49
2021/11/05 11:26:11;;;;;;;3.43;1.40;;;13.20;99.90;;;;;;4973728;28;20226;-50
2021/11/05 11:28:38;;;;;;;5.63;1.37;;;13.30;99.90;;;;;;4971355;28;20257;-49
2021/11/05 11:31:05;;;;;;;7.00;1.87;;;13.40;99.90;;;;;;4975578;28;20775;-48
2021/11/05 11:33:32;;;;;;;2.60;1.17;;;14.10;99.90;;;;;;4972638;28;20370;-49
2021/11/05 11:36:00;;;;;;;4.20;0.93;;;14.90;99.90;;;;;;4973244;28;20374;-50
2021/11/05 11:38:27;;;;;;;3.23;1.03;;;15.60;22.10;;;;;;4978751;28;20313;-48
2021/11/05 11:40:54;;;;;;;5.40;1.40;;;15.90;1.00;;;;;;4977665;28;20294;-50
2021/11/05 11:43:22;;;;;;;4.13;1.20;;;15.20;1.00;;;;;;4976263;28;20204;-50
2021/11/05 11:45:53;;;;;;;6.03;1.50;;;14.50;1.00;;;;;;4976883;28;20212;-48
2021/11/05 11:48:46;;;;;;;3.33;1.60;;;14.50;1.00;;;;;;4974990;28;20228;-49
2021/11/05 11:51:32;;;;;;;3.50;1.00;;;14.30;1.00;;;;;;4975426;28;20343;-49
2021/11/05 11:54:12;;;;;;;5.83;1.17;;;13.90;1.00;;;;;;4979920;28;20225;-49
2021/11/05 11:56:41;;;;;;;7.27;1.60;;;13.80;71.40;;;;;;4972790;28;20298;-51
2021/11/05 11:59:14;;;;;;;3.33;1.10;;;14.00;96.90;;;;;;4981886;28;20247;-50
2021/11/05 12:01:45;;;;;;;3.33;1.47;;;14.10;99.90;;;;;;4979578;28;20378;-49
2021/11/05 12:04:18;;;;;;;5.80;1.47;;;14.20;24.00;;;;;;4981662;28;20201;-49
2021/11/05 12:06:55;;;;;;;4.93;1.30;;;14.20;1.00;;;;;;4980973;28;20202;-49
2021/11/05 12:09:25;;;;;;;4.37;1.30;;;14.00;1.00;;;;;;4980502;28;20301;-48
2021/11/05 12:12:21;;;;;;;4.30;1.40;;;14.00;1.00;;;;;;4979984;28;20378;-49
2021/11/05 12:15:00;;;;;;;5.23;1.13;;;13.90;1.00;;;;;;4978994;28;21079;-50
2021/11/05 12:17:30;;;;;;;3.80;1.17;;;13.80;1.00;;;;;;4978666;28;20579;-50
2021/11/05 12:20:37;;;;;;;5.47;1.80;;;13.80;1.00;;;;;;4978552;28;20304;-50
2021/11/05 12:23:15;;;;;;;9.17;1.47;;;13.80;1.00;;;;;;4978139;28;22316;-49
2021/11/05 12:25:44;;;;;;;6.03;1.30;;;13.60;1.00;;;;;;4978510;28;20204;-48
2021/11/05 12:28:19;;;;;;;6.17;2.17;;;13.60;74.00;;;;;;4980246;28;20205;-49
2021/11/05 12:30:50;;;;;;;4.23;1.00;;;13.60;2.30;;;;;;4979632;28;20209;-48
2021/11/05 12:33:29;;;;;;;4.20;0.70;;;13.50;1.00;;;;;;4961428;28;20250;-51
2021/11/05 12:36:02;;;;;;;6.07;1.10;;;14.10;99.90;;;;;;4978637;28;20274;-50
2021/11/05 12:38:30;;;;;;;2.47;0.70;;;14.60;1.00;;;;;;4979858;28;20193;-50
2021/11/05 12:41:03;;;;;;;2.73;0.70;;;14.50;1.00;;;;;;4961134;28;20200;-50
2021/11/05 12:43:37;;;;;;;1.27;0.70;;;14.30;1.00;;;;;;4976804;28;20880;-50
2021/11/05 12:46:16;;;;;;;5.33;0.97;;;13.80;1.00;;;;;;4976414;28;20286;-50
2021/11/05 12:48:47;;;;;;;3.70;0.90;;;13.30;1.00;;;;;;4976146;28;20266;-49
2021/11/05 12:51:18;;;;;;;2.60;0.67;;;13.00;1.00;;;;;;4976506;28;21032;-49
2021/11/05 12:53:56;;;;;;;2.37;0.50;;;13.10;1.00;;;;;;4976433;28;20267;-49
2021/11/05 12:56:23;;;;;;;1.33;0.40;;;12.90;75.50;;;;;;4979567;28;20197;-51
2021/11/05 12:58:50;;;;;;;5.37;0.60;;;12.90;99.90;;;;;;4974930;28;20290;-51
2021/11/05 13:01:20;;;;;;;7.13;0.70;;;12.80;76.50;;;;;;4977184;28;20564;-50
2021/11/05 13:04:08;;;;;;;3.63;0.90;;;12.80;99.90;;;;;;4974704;28;20218;-50
2021/11/05 13:06:38;;;;;;;3.20;0.60;;;12.80;99.90;;;;;;4976969;28;20287;-50